Time;durP1;ratioP1;P1;durP2;ratioP2;P2;SDS_P1;SDS_P2;PMS_P1;PMS_P2;Temp;Humidity;BMP_temperature;BMP_pressure;BME280_temperature;BME280_humidity;BME280_pressure;Samples;Min_cycle;Max_cycle;Signal;HPM_P1;HPM_P2
2023/05/01 00:01:39;;;;;;;;;;;;;;;;;;5037140;28;20436;-77
2023/05/01 00:04:04;;;;;;;;;;;;;;;;;;5054884;28;19944;-76
2023/05/01 00:06:32;;;;;;;;;;;;;;;;;;5053672;28;19920;-78
2023/05/01 00:08:57;;;;;;;;;;;;;;;;;;5055604;28;19920;-77
2023/05/01 00:11:23;;;;;;;;;;;;;;;;;;5053624;28;19931;-76
2023/05/01 00:13:48;;;;;;;;;;;;;;;;;;5054987;28;19912;-79
2023/05/01 00:16:16;;;;;;;;;;;;;;;;;;5055043;28;20367;-76
2023/05/01 00:18:42;;;;;;;;;;;;;;;;;;5054860;28;19996;-76
2023/05/01 00:21:07;;;;;;;;;;;;;;;;;;5054620;28;19983;-77
2023/05/01 00:23:33;;;;;;;;;;;;;;;;;;5054677;28;19912;-79
2023/05/01 00:25:58;;;;;;;;;;;;;;;;;;5053415;28;20411;-76
2023/05/01 00:28:23;;;;;;;;;;;;;;;;;;5053306;28;19913;-77
2023/05/01 00:30:49;;;;;;;;;;;;;;;;;;5054099;28;19999;-77
2023/05/01 00:33:15;;;;;;;;;;;;;;;;;;5054510;28;20106;-77
2023/05/01 00:35:40;;;;;;;;;;;;;;;;;;5053221;28;19920;-78
2023/05/01 00:38:06;;;;;;;;;;;;;;;;;;5054183;28;20388;-78
2023/05/01 00:40:31;;;;;;;;;;;;;;;;;;5053195;28;20389;-78
2023/05/01 00:42:56;;;;;;;;;;;;;;;;;;5054308;28;19912;-77
2023/05/01 00:45:22;;;;;;;;;;;;;;;;;;5054303;28;20441;-77
2023/05/01 00:47:47;;;;;;;;;;;;;;;;;;5053187;28;19923;-78
2023/05/01 00:50:13;;;;;;;;;;;;;;;;;;5053971;28;19913;-78
2023/05/01 00:52:38;;;;;;;;;;;;;;;;;;5054089;28;19913;-77
2023/05/01 00:55:04;;;;;;;;;;;;;;;;;;5036064;28;19970;-77
2023/05/01 00:57:29;;;;;;;;;;;;;;;;;;5053828;28;19929;-77
2023/05/01 00:59:54;;;;;;;;;;;;;;;;;;5052468;28;20011;-78
2023/05/01 01:02:20;;;;;;;;;;;;;;;;;;5054060;28;19913;-76
2023/05/01 01:04:45;;;;;;;;;;;;;;;;;;5036128;28;19991;-77
2023/05/01 01:07:11;;;;;;;;;;;;;;;;;;5052442;28;19995;-79
2023/05/01 01:09:36;;;;;;;;;;;;;;;;;;5052308;28;20368;-77
2023/05/01 01:12:02;;;;;;;;;;;;;;;;;;5052513;28;19912;-78
2023/05/01 01:14:28;;;;;;;;;;;;;;;;;;5051813;28;19920;-79
2023/05/01 01:16:53;;;;;;;;;;;;;;;;;;5052136;28;20292;-79
2023/05/01 01:19:19;;;;;;;;;;;;;;;;;;5052132;28;19932;-78
2023/05/01 01:21:46;;;;;;;;;;;;;;;;;;5053395;28;19920;-77
2023/05/01 01:24:11;;;;;;;;;;;;;;;;;;5053394;28;20003;-81
2023/05/01 01:26:37;;;;;;;;;;;;;;;;;;5052152;28;19944;-79
2023/05/01 01:29:02;;;;;;;;;;;;;;;;;;5052304;28;19913;-77
2023/05/01 01:31:28;;;;;;;;;;;;;;;;;;5019157;28;19916;-76
2023/05/01 01:33:53;;;;;;;;;;;;;;;;;;5053641;28;19916;-79
2023/05/01 01:36:20;;;;;;;;;;;;;;;;;;5035828;28;19965;-79
2023/05/01 01:38:46;;;;;;;;;;;;;;;;;;5053914;28;19913;-78
2023/05/01 01:41:12;;;;;;;;;;;;;;;;;;5053513;28;20359;-80
2023/05/01 01:43:38;;;;;;;;;;;;;;;;;;5052569;28;19923;-77
2023/05/01 01:46:03;;;;;;;;;;;;;;;;;;5019337;28;19920;-79
2023/05/01 01:48:29;;;;;;;;;;;;;;;;;;5053014;28;20422;-80
2023/05/01 01:50:55;;;;;;;;;;;;;;;;;;5036882;28;19920;-79
2023/05/01 01:53:20;;;;;;;;;;;;;;;;;;5052887;28;19913;-80
2023/05/01 01:55:46;;;;;;;;;;;;;;;;;;5055041;28;19913;-81
2023/05/01 01:58:11;;;;;;;;;;;;;;;;;;5056124;28;19963;-78
2023/05/01 02:00:36;;;;;;;;;;;;;;;;;;5055692;28;19924;-80
2023/05/01 02:03:02;;;;;;;;;;;;;;;;;;5036803;28;19912;-79
2023/05/01 02:05:27;;;;;;;;;;;;;;;;;;5053059;28;19956;-79
2023/05/01 02:07:53;;;;;;;;;;;;;;;;;;5052827;28;19916;-78
2023/05/01 02:10:18;;;;;;;;;;;;;;;;;;5053987;28;20403;-79
2023/05/01 02:12:43;;;;;;;;;;;;;;;;;;5055203;28;19919;-78
2023/05/01 02:15:09;;;;;;;;;;;;;;;;;;5055362;28;19975;-78
2023/05/01 02:17:35;;;;;;;;;;;;;;;;;;5054397;28;19921;-77
2023/05/01 02:20:04;;;;;;;;;;;;;;;;;;5056830;28;19913;-77
2023/05/01 02:22:29;;;;;;;;;;;;;;;;;;5057353;28;20272;-76
2023/05/01 02:24:54;;;;;;;;;;;;;;;;;;5037168;28;19913;-78
2023/05/01 02:27:23;;;;;;;;;;;;;;;;;;5054229;28;19920;-78
2023/05/01 02:29:48;;;;;;;;;;;;;;;;;;5051901;28;19917;-78
2023/05/01 02:32:14;;;;;;;;;;;;;;;;;;5052700;28;19913;-79
2023/05/01 02:34:40;;;;;;;;;;;;;;;;;;5052252;28;20296;-77
2023/05/01 02:37:06;;;;;;;;;;;;;;;;;;5052106;28;20418;-78
2023/05/01 02:39:31;;;;;;;;;;;;;;;;;;5052158;28;19909;-77
2023/05/01 02:41:57;;;;;;;;;;;;;;;;;;5051100;28;19913;-78
2023/05/01 02:44:23;;;;;;;;;;;;;;;;;;5051267;28;19912;-79
2023/05/01 02:46:48;;;;;;;;;;;;;;;;;;5051361;28;19920;-79
2023/05/01 02:49:14;;;;;;;;;;;;;;;;;;5051422;28;20295;-78
2023/05/01 02:51:39;;;;;;;;;;;;;;;;;;5052283;28;20303;-79
2023/05/01 02:54:05;;;;;;;;;;;;;;;;;;5050791;28;19913;-78
2023/05/01 02:56:30;;;;;;;;;;;;;;;;;;5050806;28;19917;-78
2023/05/01 02:58:56;;;;;;;;;;;;;;;;;;5051020;28;20296;-78
2023/05/01 03:01:21;;;;;;;;;;;;;;;;;;5050739;28;20275;-79
2023/05/01 03:03:47;;;;;;;;;;;;;;;;;;5050888;28;19920;-78
2023/05/01 03:06:15;;;;;;;;;;;;;;;;;;5050827;28;19912;-77
2023/05/01 03:08:41;;;;;;;;;;;;;;;;;;5050675;28;19920;-77
2023/05/01 03:11:06;;;;;;;;;;;;;;;;;;5051054;28;19991;-79
2023/05/01 03:13:31;;;;;;;;;;;;;;;;;;5034406;28;19913;-79
2023/05/01 03:15:57;;;;;;;;;;;;;;;;;;5050714;28;19916;-78
2023/05/01 03:18:22;;;;;;;;;;;;;;;;;;5050695;28;19913;-78
2023/05/01 03:20:48;;;;;;;;;;;;;;;;;;5050605;28;19921;-77
2023/05/01 03:23:13;;;;;;;;;;;;;;;;;;5051851;28;19919;-78
2023/05/01 03:25:39;;;;;;;;;;;;;;;;;;5033929;28;19912;-77
2023/05/01 03:28:05;;;;;;;;;;;;;;;;;;5050541;28;20422;-79
2023/05/01 03:30:30;;;;;;;;;;;;;;;;;;5050260;28;19962;-78
2023/05/01 03:32:56;;;;;;;;;;;;;;;;;;5051847;28;20371;-78
2023/05/01 03:35:28;;;;;;;;;;;;;;;;;;5050667;28;19912;-76
2023/05/01 03:37:53;;;;;;;;;;;;;;;;;;5051048;28;19975;-78
2023/05/01 03:40:38;;;;;;;;;;;;;;;;;;5055247;28;19912;-78
2023/05/01 03:43:23;;;;;;;;;;;;;;;;;;5055583;28;19919;-77
2023/05/01 03:45:49;;;;;;;;;;;;;;;;;;5037798;28;19929;-77
2023/05/01 03:48:14;;;;;;;;;;;;;;;;;;5054135;28;19913;-78
2023/05/01 03:50:40;;;;;;;;;;;;;;;;;;5037411;28;19913;-78
2023/05/01 03:53:05;;;;;;;;;;;;;;;;;;5054021;28;19919;-79
2023/05/01 03:55:31;;;;;;;;;;;;;;;;;;5055371;28;19912;-77
2023/05/01 03:57:56;;;;;;;;;;;;;;;;;;5054031;28;19917;-77
2023/05/01 04:00:22;;;;;;;;;;;;;;;;;;5037489;28;20384;-79
2023/05/01 04:02:47;;;;;;;;;;;;;;;;;;5053647;28;19917;-79
2023/05/01 04:05:17;;;;;;;;;;;;;;;;;;5037810;28;19912;-80
2023/05/01 04:07:47;;;;;;;;;;;;;;;;;;5037269;28;20088;-80
2023/05/01 04:10:13;;;;;;;;;;;;;;;;;;5037228;28;20047;-78
2023/05/01 04:12:45;;;;;;;;;;;;;;;;;;5053537;28;19936;-77
2023/05/01 04:15:12;;;;;;;;;;;;;;;;;;5020599;28;19995;-77
2023/05/01 04:17:38;;;;;;;;;;;;;;;;;;5053227;28;20020;-78
2023/05/01 04:20:05;;;;;;;;;;;;;;;;;;5053292;28;19917;-78
2023/05/01 04:22:30;;;;;;;;;;;;;;;;;;5053416;28;19913;-80
2023/05/01 04:24:56;;;;;;;;;;;;;;;;;;5054604;28;20383;-77
2023/05/01 04:27:21;;;;;;;;;;;;;;;;;;5053472;28;19913;-78
2023/05/01 04:29:47;;;;;;;;;;;;;;;;;;5053461;28;19963;-79
2023/05/01 04:32:12;;;;;;;;;;;;;;;;;;5054603;28;19920;-77
2023/05/01 04:34:38;;;;;;;;;;;;;;;;;;5053529;28;20407;-79
2023/05/01 04:37:06;;;;;;;;;;;;;;;;;;5054592;28;20324;-81
2023/05/01 04:39:31;;;;;;;;;;;;;;;;;;5055017;28;19966;-78
2023/05/01 04:41:56;;;;;;;;;;;;;;;;;;5053475;28;19913;-83
2023/05/01 04:44:23;;;;;;;;;;;;;;;;;;5053955;28;19913;-81
2023/05/01 04:46:48;;;;;;;;;;;;;;;;;;5054228;28;19934;-79
2023/05/01 04:49:14;;;;;;;;;;;;;;;;;;5068175;28;19913;-79
2023/05/01 04:51:39;;;;;;;;;;;;;;;;;;5067218;28;19919;-80
2023/05/01 04:54:07;;;;;;;;;;;;;;;;;;5038475;28;19913;-79
2023/05/01 04:56:35;;;;;;;;;;;;;;;;;;5052544;28;19967;-78
2023/05/01 04:59:00;;;;;;;;;;;;;;;;;;5053985;28;19954;-79
2023/05/01 05:01:27;;;;;;;;;;;;;;;;;;5019985;28;19913;-80
2023/05/01 05:03:52;;;;;;;;;;;;;;;;;;5019826;28;19912;-80
2023/05/01 05:06:18;;;;;;;;;;;;;;;;;;5052693;28;19961;-79
2023/05/01 05:08:44;;;;;;;;;;;;;;;;;;5036262;28;19917;-79
2023/05/01 05:11:10;;;;;;;;;;;;;;;;;;5053336;28;19943;-81
2023/05/01 05:13:55;;;;;;;;;;;;;;;;;;5054637;28;19913;-80
2023/05/01 05:16:20;;;;;;;;;;;;;;;;;;5055109;28;19923;-76
2023/05/01 05:18:45;;;;;;;;;;;;;;;;;;5053237;28;19913;-78
2023/05/01 05:21:11;;;;;;;;;;;;;;;;;;5036708;28;19973;-79
2023/05/01 05:23:41;;;;;;;;;;;;;;;;;;5038072;28;19908;-79
2023/05/01 05:26:06;;;;;;;;;;;;;;;;;;5056635;28;19913;-79
2023/05/01 05:28:32;;;;;;;;;;;;;;;;;;5055933;28;19917;-78
2023/05/01 05:30:57;;;;;;;;;;;;;;;;;;5053630;28;19916;-82
2023/05/01 05:33:24;;;;;;;;;;;;;;;;;;5056282;28;19919;-79
2023/05/01 05:35:49;;;;;;;;;;;;;;;;;;5056846;28;19913;-77
2023/05/01 05:38:15;;;;;;;;;;;;;;;;;;5056589;28;19987;-81
2023/05/01 05:40:43;;;;;;;;;;;;;;;;;;5059220;28;19912;-79
2023/05/01 05:43:09;;;;;;;;;;;;;;;;;;5065323;28;19923;-78
2023/05/01 05:45:35;;;;;;;;;;;;;;;;;;5069184;28;19917;-78
2023/05/01 05:48:00;;;;;;;;;;;;;;;;;;5063849;28;19942;-80
2023/05/01 05:50:28;;;;;;;;;;;;;;;;;;5034942;28;20355;-79
2023/05/01 05:52:54;;;;;;;;;;;;;;;;;;5035217;28;19967;-79
2023/05/01 05:55:20;;;;;;;;;;;;;;;;;;5035400;28;19916;-79
2023/05/01 05:57:58;;;;;;;;;;;;;;;;;;5051563;28;19928;-78
2023/05/01 06:00:23;;;;;;;;;;;;;;;;;;5051491;28;19913;-78
2023/05/01 06:02:50;;;;;;;;;;;;;;;;;;5035265;28;19916;-79
2023/05/01 06:05:17;;;;;;;;;;;;;;;;;;5051605;28;19913;-79
2023/05/01 06:07:42;;;;;;;;;;;;;;;;;;5064195;22;19924;-80
2023/05/01 06:10:10;;;;;;;;;;;;;;;;;;5027332;28;19923;-79
2023/05/01 06:12:37;;;;;;;;;;;;;;;;;;5058228;28;19944;-79
2023/05/01 06:15:06;;;;;;;;;;;;;;;;;;5040254;28;19913;-79
2023/05/01 06:17:36;;;;;;;;;;;;;;;;;;5038095;28;19971;-79
2023/05/01 06:20:04;;;;;;;;;;;;;;;;;;5019854;28;19913;-81
2023/05/01 06:22:30;;;;;;;;;;;;;;;;;;5022135;28;19917;-81
2023/05/01 06:25:10;;;;;;;;;;;;;;;;;;5035421;28;20015;-80
2023/05/01 06:27:35;;;;;;;;;;;;;;;;;;5038504;28;19952;-79
2023/05/01 06:30:02;;;;;;;;;;;;;;;;;;5037116;28;19913;-81
2023/05/01 06:32:29;;;;;;;;;;;;;;;;;;5037572;28;19920;-80
2023/05/01 06:34:55;;;;;;;;;;;;;;;;;;5018625;28;19914;-80
2023/05/01 06:37:20;;;;;;;;;;;;;;;;;;5034775;28;19917;-79
2023/05/01 06:39:46;;;;;;;;;;;;;;;;;;5034955;28;19921;-82
2023/05/01 06:42:15;;;;;;;;;;;;;;;;;;5002856;28;20353;-81
2023/05/01 06:44:40;;;;;;;;;;;;;;;;;;5038533;28;19909;-82
2023/05/01 06:47:06;;;;;;;;;;;;;;;;;;5035504;28;19956;-80
2023/05/01 06:49:32;;;;;;;;;;;;;;;;;;5038183;28;20292;-78
2023/05/01 06:51:59;;;;;;;;;;;;;;;;;;5036216;28;19920;-79
2023/05/01 06:54:28;;;;;;;;;;;;;;;;;;5035867;28;19914;-78
2023/05/01 06:56:55;;;;;;;;;;;;;;;;;;5020550;28;19917;-82
2023/05/01 06:59:21;;;;;;;;;;;;;;;;;;5003484;28;19959;-82
2023/05/01 07:01:50;;;;;;;;;;;;;;;;;;5019040;28;20364;-82
2023/05/01 07:04:15;;;;;;;;;;;;;;;;;;5017853;28;19919;-82
2023/05/01 07:06:43;;;;;;;;;;;;;;;;;;5001293;28;20007;-84
2023/05/01 07:09:10;;;;;;;;;;;;;;;;;;5035203;28;19961;-81
2023/05/01 07:11:36;;;;;;;;;;;;;;;;;;5037449;28;19991;-83
2023/05/01 07:14:02;;;;;;;;;;;;;;;;;;5007113;28;19960;-82
2023/05/01 07:16:28;;;;;;;;;;;;;;;;;;5007077;28;19917;-81
2023/05/01 07:18:53;;;;;;;;;;;;;;;;;;5022711;28;19939;-84
2023/05/01 07:21:19;;;;;;;;;;;;;;;;;;5020316;28;20027;-78
2023/05/01 07:23:45;;;;;;;;;;;;;;;;;;5019905;28;19948;-80
2023/05/01 07:26:11;;;;;;;;;;;;;;;;;;5003785;28;19913;-81
2023/05/01 07:28:40;;;;;;;;;;;;;;;;;;5020207;28;19913;-82
2023/05/01 07:31:06;;;;;;;;;;;;;;;;;;5003681;28;19917;-80
2023/05/01 07:33:31;;;;;;;;;;;;;;;;;;5004377;28;19920;-79
2023/05/01 07:35:57;;;;;;;;;;;;;;;;;;5021299;28;20004;-80
2023/05/01 07:38:23;;;;;;;;;;;;;;;;;;5023324;28;19924;-82
2023/05/01 07:40:51;;;;;;;;;;;;;;;;;;5038328;28;19924;-83
2023/05/01 07:43:17;;;;;;;;;;;;;;;;;;5038040;28;20118;-82
2023/05/01 07:45:42;;;;;;;;;;;;;;;;;;5006317;28;19913;-80
2023/05/01 07:48:08;;;;;;;;;;;;;;;;;;5022292;28;19913;-80
2023/05/01 07:50:34;;;;;;;;;;;;;;;;;;5004338;28;19913;-81
2023/05/01 07:52:59;;;;;;;;;;;;;;;;;;5006086;28;19941;-80
2023/05/01 07:55:25;;;;;;;;;;;;;;;;;;5037749;28;19936;-80
2023/05/01 07:57:51;;;;;;;;;;;;;;;;;;5037517;28;20388;-78
2023/05/01 08:00:16;;;;;;;;;;;;;;;;;;5038648;28;19920;-79
2023/05/01 08:02:42;;;;;;;;;;;;;;;;;;5026633;28;19967;-78
2023/05/01 08:05:08;;;;;;;;;;;;;;;;;;5009559;28;20277;-80
2023/05/01 08:07:33;;;;;;;;;;;;;;;;;;5023957;28;19983;-79
2023/05/01 08:09:59;;;;;;;;;;;;;;;;;;5006557;28;20383;-80
2023/05/01 08:12:24;;;;;;;;;;;;;;;;;;5041491;28;19919;-81
2023/05/01 08:14:50;;;;;;;;;;;;;;;;;;5038277;28;20383;-80
2023/05/01 08:17:16;;;;;;;;;;;;;;;;;;5004926;28;19921;-81
2023/05/01 08:19:41;;;;;;;;;;;;;;;;;;5001845;28;19913;-80
2023/05/01 08:22:07;;;;;;;;;;;;;;;;;;5034611;28;19913;-80
2023/05/01 08:24:32;;;;;;;;;;;;;;;;;;5034392;28;19913;-79
2023/05/01 08:26:58;;;;;;;;;;;;;;;;;;5017877;28;20324;-81
2023/05/01 08:29:26;;;;;;;;;;;;;;;;;;5018206;28;20372;-79
2023/05/01 08:31:52;;;;;;;;;;;;;;;;;;5019076;28;19935;-80
2023/05/01 08:34:21;;;;;;;;;;;;;;;;;;5020699;28;19914;-80
2023/05/01 08:36:47;;;;;;;;;;;;;;;;;;5002214;28;20023;-79
2023/05/01 08:39:14;;;;;;;;;;;;;;;;;;5019552;28;19953;-83
2023/05/01 08:41:39;;;;;;;;;;;;;;;;;;5033773;28;19925;-79
2023/05/01 08:44:05;;;;;;;;;;;;;;;;;;5036514;28;19917;-80
2023/05/01 08:46:31;;;;;;;;;;;;;;;;;;5017433;28;19913;-79
2023/05/01 08:48:58;;;;;;;;;;;;;;;;;;5037693;28;20273;-79
2023/05/01 08:51:24;;;;;;;;;;;;;;;;;;5016345;28;19921;-79
2023/05/01 08:53:53;;;;;;;;;;;;;;;;;;5014258;28;19957;-80
2023/05/01 08:56:20;;;;;;;;;;;;;;;;;;5009558;28;19964;-80
2023/05/01 08:58:45;;;;;;;;;;;;;;;;;;4999318;28;19920;-80
2023/05/01 09:01:11;;;;;;;;;;;;;;;;;;5014644;28;19913;-81
2023/05/01 09:03:36;;;;;;;;;;;;;;;;;;5024134;28;19913;-80
2023/05/01 09:06:02;;;;;;;;;;;;;;;;;;5012182;28;19920;-79
2023/05/01 09:08:30;;;;;;;;;;;;;;;;;;5033611;28;19964;-79
2023/05/01 09:10:59;;;;;;;;;;;;;;;;;;5013011;28;19914;-80
2023/05/01 09:13:27;;;;;;;;;;;;;;;;;;5033199;28;20003;-81
2023/05/01 09:15:53;;;;;;;;;;;;;;;;;;5031692;28;19919;-79
2023/05/01 09:18:18;;;;;;;;;;;;;;;;;;5014818;28;19917;-81
2023/05/01 09:20:43;;;;;;;;;;;;;;;;;;5033165;28;19999;-80
2023/05/01 09:23:09;;;;;;;;;;;;;;;;;;5033240;28;19936;-82
2023/05/01 09:25:34;;;;;;;;;;;;;;;;;;5018024;28;19913;-81
2023/05/01 09:28:00;;;;;;;;;;;;;;;;;;5017548;28;19913;-79
2023/05/01 09:30:26;;;;;;;;;;;;;;;;;;5035681;28;19916;-80
2023/05/01 09:32:52;;;;;;;;;;;;;;;;;;5033843;28;20280;-80
2023/05/01 09:35:17;;;;;;;;;;;;;;;;;;5022537;28;19920;-80
2023/05/01 09:37:44;;;;;;;;;;;;;;;;;;5034035;28;19917;-82
2023/05/01 09:40:09;;;;;;;;;;;;;;;;;;5032559;28;19917;-83
2023/05/01 09:42:36;;;;;;;;;;;;;;;;;;5023813;28;19936;-84
2023/05/01 09:45:10;;;;;;;;;;;;;;;;;;5017080;28;19931;-82
2023/05/01 09:47:35;;;;;;;;;;;;;;;;;;5015509;28;19913;-83
2023/05/01 09:50:01;;;;;;;;;;;;;;;;;;5024660;28;19984;-83
2023/05/01 09:52:34;;;;;;;;;;;;;;;;;;5024365;28;20303;-84
2023/05/01 09:54:59;;;;;;;;;;;;;;;;;;5032194;28;19913;-83
2023/05/01 09:57:26;;;;;;;;;;;;;;;;;;5032845;28;19917;-82
2023/05/01 09:59:51;;;;;;;;;;;;;;;;;;5015273;28;20288;-81
2023/05/01 10:02:17;;;;;;;;;;;;;;;;;;5009434;28;20412;-81
2023/05/01 10:04:43;;;;;;;;;;;;;;;;;;5013255;28;19956;-83
2023/05/01 10:07:08;;;;;;;;;;;;;;;;;;5015639;28;19940;-83
2023/05/01 10:09:34;;;;;;;;;;;;;;;;;;5034587;28;19963;-81
2023/05/01 10:11:59;;;;;;;;;;;;;;;;;;5039361;28;20364;-81
2023/05/01 10:14:27;;;;;;;;;;;;;;;;;;5034105;28;19917;-81
2023/05/01 10:16:52;;;;;;;;;;;;;;;;;;5032956;28;19924;-81
2023/05/01 10:19:18;;;;;;;;;;;;;;;;;;5032582;28;19909;-79
2023/05/01 10:21:43;;;;;;;;;;;;;;;;;;5033047;28;19913;-79
2023/05/01 10:24:09;;;;;;;;;;;;;;;;;;5032681;28;19920;-78
2023/05/01 10:26:35;;;;;;;;;;;;;;;;;;5031489;28;20004;-78
2023/05/01 10:29:00;;;;;;;;;;;;;;;;;;5031323;28;19996;-81
2023/05/01 10:31:31;;;;;;;;;;;;;;;;;;5032323;28;19917;-78
2023/05/01 10:33:57;;;;;;;;;;;;;;;;;;5031539;28;19917;-79
2023/05/01 10:36:22;;;;;;;;;;;;;;;;;;5015155;28;20339;-78
2023/05/01 10:38:48;;;;;;;;;;;;;;;;;;5032500;28;19925;-80
2023/05/01 10:41:14;;;;;;;;;;;;;;;;;;5014683;28;20261;-79
2023/05/01 10:43:40;;;;;;;;;;;;;;;;;;5015347;28;19909;-80
2023/05/01 10:46:05;;;;;;;;;;;;;;;;;;5035136;28;19920;-78
2023/05/01 10:48:31;;;;;;;;;;;;;;;;;;5016858;28;19920;-79
2023/05/01 10:50:57;;;;;;;;;;;;;;;;;;5002536;28;19921;-79
2023/05/01 10:53:23;;;;;;;;;;;;;;;;;;5003841;28;19913;-79
2023/05/01 10:55:49;;;;;;;;;;;;;;;;;;5004342;28;19952;-79
2023/05/01 10:58:17;;;;;;;;;;;;;;;;;;5019952;28;19917;-80
2023/05/01 11:00:43;;;;;;;;;;;;;;;;;;5002815;28;19919;-80
2023/05/01 11:03:08;;;;;;;;;;;;;;;;;;5019219;28;19913;-80
2023/05/01 11:05:34;;;;;;;;;;;;;;;;;;5018916;28;19913;-80
2023/05/01 11:08:00;;;;;;;;;;;;;;;;;;5018613;28;20276;-81
2023/05/01 11:10:25;;;;;;;;;;;;;;;;;;5002118;28;19913;-80
2023/05/01 11:12:51;;;;;;;;;;;;;;;;;;5019128;28;19972;-81
2023/05/01 11:15:16;;;;;;;;;;;;;;;;;;5018875;28;19916;-80
2023/05/01 11:17:42;;;;;;;;;;;;;;;;;;5034757;28;20269;-81
2023/05/01 11:20:08;;;;;;;;;;;;;;;;;;5021597;28;19992;-81
2023/05/01 11:22:33;;;;;;;;;;;;;;;;;;5031543;28;19929;-81
2023/05/01 11:24:59;;;;;;;;;;;;;;;;;;5028595;28;19913;-81
2023/05/01 11:27:25;;;;;;;;;;;;;;;;;;5045717;28;19913;-82
2023/05/01 11:29:50;;;;;;;;;;;;;;;;;;5051564;28;19917;-81
2023/05/01 11:32:16;;;;;;;;;;;;;;;;;;5049955;28;20453;-82
2023/05/01 11:34:42;;;;;;;;;;;;;;;;;;5045087;28;19956;-81
2023/05/01 11:37:10;;;;;;;;;;;;;;;;;;5012694;28;19917;-81
2023/05/01 11:39:36;;;;;;;;;;;;;;;;;;5043237;28;20396;-81
2023/05/01 11:42:02;;;;;;;;;;;;;;;;;;5010340;28;19936;-80
2023/05/01 11:44:29;;;;;;;;;;;;;;;;;;5044101;28;19913;-80
2023/05/01 11:46:54;;;;;;;;;;;;;;;;;;5009316;28;19924;-80
2023/05/01 11:49:20;;;;;;;;;;;;;;;;;;5027159;28;19913;-81
2023/05/01 11:51:45;;;;;;;;;;;;;;;;;;5030979;28;19913;-82
2023/05/01 11:54:14;;;;;;;;;;;;;;;;;;5038704;28;19914;-81
2023/05/01 11:56:47;;;;;;;;;;;;;;;;;;5026887;28;19917;-80
2023/05/01 11:59:15;;;;;;;;;;;;;;;;;;5018813;28;19920;-80
2023/05/01 12:01:42;;;;;;;;;;;;;;;;;;5043806;28;19917;-81
2023/05/01 12:04:09;;;;;;;;;;;;;;;;;;5038175;28;19920;-82
2023/05/01 12:06:35;;;;;;;;;;;;;;;;;;5034423;28;19936;-81
2023/05/01 12:09:04;;;;;;;;;;;;;;;;;;5035816;23;19925;-80
2023/05/01 12:11:30;;;;;;;;;;;;;;;;;;5070417;28;19924;-80
2023/05/01 12:13:55;;;;;;;;;;;;;;;;;;5072511;28;19912;-79
2023/05/01 12:16:20;;;;;;;;;;;;;;;;;;5070411;28;19921;-79
2023/05/01 12:18:47;;;;;;;;;;;;;;;;;;5049766;28;19909;-81
2023/05/01 12:21:12;;;;;;;;;;;;;;;;;;5035704;28;19924;-79
2023/05/01 12:23:37;;;;;;;;;;;;;;;;;;5029242;28;20289;-80
2023/05/01 12:26:03;;;;;;;;;;;;;;;;;;5033634;28;19939;-81
2023/05/01 12:28:28;;;;;;;;;;;;;;;;;;5033054;28;19913;-81
2023/05/01 12:30:56;;;;;;;;;;;;;;;;;;5033288;28;19975;-81
2023/05/01 12:33:21;;;;;;;;;;;;;;;;;;5034254;28;19909;-80
2023/05/01 12:35:47;;;;;;;;;;;;;;;;;;5033105;28;20398;-79
2023/05/01 12:38:13;;;;;;;;;;;;;;;;;;5033878;28;20402;-85
2023/05/01 12:40:38;;;;;;;;;;;;;;;;;;5015330;28;19919;-80
2023/05/01 12:43:04;;;;;;;;;;;;;;;;;;5029863;28;19921;-81
2023/05/01 12:45:32;;;;;;;;;;;;;;;;;;5030770;28;19985;-81
2023/05/01 12:47:58;;;;;;;;;;;;;;;;;;5028830;28;19914;-80
2023/05/01 12:50:23;;;;;;;;;;;;;;;;;;5016847;28;20346;-81
2023/05/01 12:52:48;;;;;;;;;;;;;;;;;;5028639;28;20372;-80
2023/05/01 12:55:17;;;;;;;;;;;;;;;;;;5029059;28;19933;-80
2023/05/01 12:57:43;;;;;;;;;;;;;;;;;;5028025;28;19925;-80
2023/05/01 13:00:09;;;;;;;;;;;;;;;;;;5026817;28;20338;-81
2023/05/01 13:02:42;;;;;;;;;;;;;;;;;;5032577;28;19913;-82
2023/05/01 13:05:07;;;;;;;;;;;;;;;;;;5017156;28;19920;-82
2023/05/01 13:07:33;;;;;;;;;;;;;;;;;;5048822;28;19917;-80
2023/05/01 13:09:58;;;;;;;;;;;;;;;;;;5031270;28;19917;-80
2023/05/01 13:12:24;;;;;;;;;;;;;;;;;;5032379;28;19935;-81
2023/05/01 13:14:49;;;;;;;;;;;;;;;;;;5036312;28;19921;-79
2023/05/01 13:17:15;;;;;;;;;;;;;;;;;;5039746;28;20303;-80
2023/05/01 13:19:40;;;;;;;;;;;;;;;;;;5037241;28;19913;-80
2023/05/01 13:22:05;;;;;;;;;;;;;;;;;;5041878;28;19913;-80
2023/05/01 13:24:34;;;;;;;;;;;;;;;;;;5036716;28;19909;-79
2023/05/01 13:27:00;;;;;;;;;;;;;;;;;;5035532;28;20272;-81
2023/05/01 13:29:25;;;;;;;;;;;;;;;;;;5033380;28;19917;-79
2023/05/01 13:31:51;;;;;;;;;;;;;;;;;;5015826;28;19913;-80
2023/05/01 13:34:16;;;;;;;;;;;;;;;;;;5033843;28;19913;-79
2023/05/01 13:36:43;;;;;;;;;;;;;;;;;;5031697;28;19917;-79
2023/05/01 13:39:08;;;;;;;;;;;;;;;;;;5031755;28;19920;-80
2023/05/01 13:41:35;;;;;;;;;;;;;;;;;;5031678;28;19916;-79
2023/05/01 13:44:00;;;;;;;;;;;;;;;;;;5033467;28;19977;-81
2023/05/01 13:46:26;;;;;;;;;;;;;;;;;;5033101;28;19913;-80
2023/05/01 13:48:51;;;;;;;;;;;;;;;;;;5032090;28;20295;-80
2023/05/01 13:51:17;;;;;;;;;;;;;;;;;;5033072;28;20309;-80
2023/05/01 13:53:42;;;;;;;;;;;;;;;;;;5031851;28;20287;-80
2023/05/01 13:56:08;;;;;;;;;;;;;;;;;;5014843;28;19913;-81
2023/05/01 13:58:33;;;;;;;;;;;;;;;;;;5032516;28;19945;-79
2023/05/01 14:00:59;;;;;;;;;;;;;;;;;;5032527;28;20004;-81
2023/05/01 14:03:26;;;;;;;;;;;;;;;;;;5030586;28;20189;-79
2023/05/01 14:05:54;;;;;;;;;;;;;;;;;;5032001;28;19914;-80
2023/05/01 14:08:20;;;;;;;;;;;;;;;;;;5030505;28;19913;-79
2023/05/01 14:10:46;;;;;;;;;;;;;;;;;;5031868;28;19913;-78
2023/05/01 14:13:12;;;;;;;;;;;;;;;;;;5031056;28;20003;-80
2023/05/01 14:15:42;;;;;;;;;;;;;;;;;;5032351;28;19914;-78
2023/05/01 14:18:08;;;;;;;;;;;;;;;;;;5030604;28;19996;-79
2023/05/01 14:20:33;;;;;;;;;;;;;;;;;;5031953;28;20004;-79
2023/05/01 14:22:59;;;;;;;;;;;;;;;;;;5030976;28;19956;-79
2023/05/01 14:25:24;;;;;;;;;;;;;;;;;;5030924;28;20446;-80
2023/05/01 14:27:50;;;;;;;;;;;;;;;;;;5030617;28;19916;-80
2023/05/01 14:30:15;;;;;;;;;;;;;;;;;;5030926;28;20359;-85
2023/05/01 14:32:41;;;;;;;;;;;;;;;;;;5028979;28;19913;-79
2023/05/01 14:35:09;;;;;;;;;;;;;;;;;;5027566;28;19921;-79
2023/05/01 14:37:35;;;;;;;;;;;;;;;;;;5026252;28;19917;-79
2023/05/01 14:40:01;;;;;;;;;;;;;;;;;;5029871;28;19916;-81
2023/05/01 14:42:26;;;;;;;;;;;;;;;;;;5030412;28;19956;-80
2023/05/01 14:44:51;;;;;;;;;;;;;;;;;;5032247;28;19913;-80
2023/05/01 14:47:17;;;;;;;;;;;;;;;;;;5031143;28;20283;-79
2023/05/01 14:49:42;;;;;;;;;;;;;;;;;;5029514;28;19923;-79
2023/05/01 14:52:08;;;;;;;;;;;;;;;;;;5033869;28;20342;-80
2023/05/01 14:54:33;;;;;;;;;;;;;;;;;;5032129;28;20005;-80
2023/05/01 14:57:05;;;;;;;;;;;;;;;;;;5032318;28;19925;-79
2023/05/01 14:59:30;;;;;;;;;;;;;;;;;;5014147;28;20413;-80
2023/05/01 15:01:55;;;;;;;;;;;;;;;;;;5032343;28;20004;-79
2023/05/01 15:04:21;;;;;;;;;;;;;;;;;;5030799;28;20327;-79
2023/05/01 15:06:47;;;;;;;;;;;;;;;;;;5031994;28;19951;-81
2023/05/01 15:09:12;;;;;;;;;;;;;;;;;;5032418;28;20333;-80
2023/05/01 15:11:38;;;;;;;;;;;;;;;;;;5032368;28;20366;-80
2023/05/01 15:14:03;;;;;;;;;;;;;;;;;;5036381;28;20315;-78
2023/05/01 15:16:29;;;;;;;;;;;;;;;;;;5039096;28;20032;-79
2023/05/01 15:18:55;;;;;;;;;;;;;;;;;;5039128;28;19913;-79
2023/05/01 15:21:20;;;;;;;;;;;;;;;;;;5039158;28;19920;-79
2023/05/01 15:23:45;;;;;;;;;;;;;;;;;;5037579;28;19929;-76
2023/05/01 15:26:11;;;;;;;;;;;;;;;;;;5039337;28;19919;-77
2023/05/01 15:28:36;;;;;;;;;;;;;;;;;;5039747;28;20391;-78
2023/05/01 15:31:02;;;;;;;;;;;;;;;;;;5037242;28;19913;-76
2023/05/01 15:33:27;;;;;;;;;;;;;;;;;;5033201;28;20380;-77
2023/05/01 15:35:53;;;;;;;;;;;;;;;;;;5035231;28;19913;-77
2023/05/01 15:38:19;;;;;;;;;;;;;;;;;;5034677;28;19940;-76
2023/05/01 15:40:45;;;;;;;;;;;;;;;;;;5035200;28;19975;-76
2023/05/01 15:43:10;;;;;;;;;;;;;;;;;;5033443;28;20002;-77
2023/05/01 15:45:41;;;;;;;;;;;;;;;;;;5034556;28;20511;-76
2023/05/01 15:48:06;;;;;;;;;;;;;;;;;;5034793;28;19960;-81
2023/05/01 15:50:32;;;;;;;;;;;;;;;;;;5034102;28;19964;-81
2023/05/01 15:52:57;;;;;;;;;;;;;;;;;;5034086;28;20379;-81
2023/05/01 15:55:22;;;;;;;;;;;;;;;;;;5034386;28;19997;-80
2023/05/01 15:57:48;;;;;;;;;;;;;;;;;;5033081;28;20414;-77
2023/05/01 16:00:13;;;;;;;;;;;;;;;;;;5034920;28;19917;-77
2023/05/01 16:02:39;;;;;;;;;;;;;;;;;;5034318;28;20356;-76
2023/05/01 16:05:04;;;;;;;;;;;;;;;;;;5034197;28;19988;-77
2023/05/01 16:07:30;;;;;;;;;;;;;;;;;;5034300;28;19921;-78
2023/05/01 16:09:55;;;;;;;;;;;;;;;;;;5031268;28;20327;-78
2023/05/01 16:12:21;;;;;;;;;;;;;;;;;;5033142;28;20009;-77
2023/05/01 16:14:46;;;;;;;;;;;;;;;;;;5034158;28;20368;-77
2023/05/01 16:17:11;;;;;;;;;;;;;;;;;;5034170;28;19921;-76
2023/05/01 16:19:37;;;;;;;;;;;;;;;;;;5033033;28;20372;-76
2023/05/01 16:22:02;;;;;;;;;;;;;;;;;;5032671;28;19921;-77
2023/05/01 16:24:28;;;;;;;;;;;;;;;;;;5034100;28;19920;-77
2023/05/01 16:26:53;;;;;;;;;;;;;;;;;;5034024;28;20387;-76
2023/05/01 16:29:19;;;;;;;;;;;;;;;;;;5033672;28;19925;-78
2023/05/01 16:31:46;;;;;;;;;;;;;;;;;;5033289;28;19913;-77
2023/05/01 16:34:12;;;;;;;;;;;;;;;;;;5032981;28;20008;-76
2023/05/01 16:36:37;;;;;;;;;;;;;;;;;;5034089;28;19917;-77
2023/05/01 16:39:03;;;;;;;;;;;;;;;;;;5033952;28;19968;-77